Flag for France

Past Weather in La Rochelle, Nouvelle-Aquitaine, France — Yesterday and Last 2 Weeks

Currently: 37 °F. Fog. (Weather station: La Rochelle Airport, France). See more current weather

Past Weather in La Rochelle — Graph

°F

La Rochelle Temperature Yesterday

Maximum temperature yesterday: 52 °F (at 12:00 am)
Minimum temperature yesterday: 39 °F (at 8:30 am)
Average temperature yesterday: 45 °F

High & Low Weather Summary for the Past Weeks

 TemperatureHumidityPressure
High52 °F (Jan 12, 3:30 pm)100% (Jan 3, 7:00 am)30.45 "Hg (Jan 3, 7:00 am)
Low27 °F (Jan 8, 6:00 am)65% (Jan 10, 1:00 pm)29.83 "Hg (Jan 3, 2:30 pm)
Average39 °F90%30.17 "Hg
* Reported Jan 3 7:00 am — Jan 18 7:00 am, La Rochelle. Weather by CustomWeather, © 2021

Note: Actual official high and low records may vary slightly from our data, if they occured in-between our weather recording intervals... More about our weather records

La Rochelle Weather History for the Previous 24 Hours

Scroll right to see more
 ConditionsComfort  
Time TempWeatherWind HumidityBarometerVisibility
7:00 am
Mon, Jan 18
39 °FFog.3 mph93%30.39 "Hg2 mi
6:30 am37 °FLight fog.3 mph100%30.39 "Hg1 mi
6:00 am37 °FFog.3 mph100%30.39 "Hg2 mi
5:30 am37 °FFog.3 mph100%30.39 "Hg3 mi
5:00 am37 °FPassing clouds.3 mph100%30.42 "HgN/A
4:30 am39 °FPassing clouds.3 mph93%30.42 "HgN/A
4:00 am41 °FOvercast.6 mph93%30.42 "HgN/A
3:30 am41 °FOvercast.5 mph93%30.42 "HgN/A
3:00 am41 °FOvercast.3 mph100%30.42 "HgN/A
2:30 am41 °FOvercast.3 mph100%30.42 "HgN/A
2:00 am43 °FOvercast.3 mph93%30.42 "HgN/A
1:30 am41 °FOvercast.1 mph93%30.42 "HgN/A
12:30 am43 °FPassing clouds.5 mph93%30.45 "HgN/A
12:00 am39 °FPassing clouds.3 mph93%30.45 "HgN/A
11:30 pm
Sun, Jan 17
41 °FClear.3 mph93%30.45 "Hg10 mi
11:00 pm41 °FClear.2 mph93%30.42 "Hg10 mi
10:30 pm41 °FClear.3 mph87%30.42 "Hg10 mi
10:00 pm43 °FClear.3 mph87%30.42 "Hg10 mi
9:30 pm41 °FClear.5 mph87%30.42 "Hg10 mi
9:00 pm39 °FClear.2 mph93%30.42 "Hg10 mi
8:30 pm41 °FClear.No wind87%30.42 "Hg10 mi
8:00 pm41 °FClear.2 mph87%30.42 "Hg10 mi
7:30 pm41 °FClear.1 mph87%30.42 "Hg10 mi
7:00 pm43 °FPassing clouds.2 mph81%30.42 "HgN/A
6:30 pm45 °FPassing clouds.3 mph81%30.42 "HgN/A
6:00 pm45 °FClear.3 mph81%30.42 "Hg10 mi
5:30 pm46 °FSunny.3 mph76%30.39 "Hg10 mi
5:00 pm48 °FSunny.5 mph71%30.39 "Hg10 mi
4:30 pm48 °FSunny.7 mph66%30.39 "Hg10 mi
4:00 pm48 °FScattered clouds.7 mph76%30.39 "HgN/A
3:30 pm50 °FPartly sunny.6 mph71%30.39 "HgN/A
3:00 pm50 °FPartly sunny.8 mph71%30.36 "HgN/A
2:30 pm48 °FPartly sunny.9 mph76%30.36 "HgN/A
1:30 pm48 °FSunny.9 mph76%30.39 "Hg10 mi
1:00 pm48 °FSunny.8 mph76%30.39 "Hg10 mi
12:30 pm46 °FScattered clouds.8 mph76%30.39 "HgN/A
12:00 pm46 °FPassing clouds.9 mph82%30.39 "HgN/A
11:30 am46 °FSunny.9 mph82%30.39 "Hg10 mi
11:00 am45 °FPartly sunny.8 mph87%30.36 "HgN/A
10:30 am43 °FOvercast.8 mph93%30.36 "HgN/A
10:00 am43 °FOvercast.8 mph93%30.36 "HgN/A
9:30 am41 °FOvercast.6 mph100%30.33 "HgN/A
9:00 am39 °FFog.5 mph100%30.33 "Hg1 mi
8:30 am39 °FFog.2 mph100%30.30 "Hg1 mi
8:00 am41 °FFog.5 mph100%30.30 "Hg1 mi
Weather by CustomWeather, © 2021

See weather overview